Time;durP1;ratioP1;P1;durP2;ratioP2;P2;SDS_P1;SDS_P2;PMS_P1;PMS_P2;Temp;Humidity;BMP_temperature;BMP_pressure;BME280_temperature;BME280_humidity;BME280_pressure;Samples;Min_cycle;Max_cycle;Signal;HPM_P1;HPM_P2
2021/01/19 00:00:46;;;;;;;42.65;20.63;;;0.70;99.90;;;;;;6247815;23;20004;-76
2021/01/19 00:03:12;;;;;;;11.00;6.28;;;0.60;99.90;;;;;;6247904;23;20004;-76
2021/01/19 00:05:37;;;;;;;11.85;6.53;;;0.60;99.90;;;;;;6247796;22;20443;-76
2021/01/19 00:08:03;;;;;;;12.32;6.60;;;0.50;99.90;;;;;;6247866;23;20060;-76
2021/01/19 00:10:29;;;;;;;11.95;4.82;;;0.50;99.90;;;;;;6221648;23;20004;-76
2021/01/19 00:12:54;;;;;;;15.73;8.88;;;0.50;99.90;;;;;;6247688;23;20000;-76
2021/01/19 00:15:20;;;;;;;26.95;14.77;;;0.50;99.90;;;;;;6247869;22;20004;-76
2021/01/19 00:17:45;;;;;;;22.35;12.32;;;0.50;99.90;;;;;;6221008;23;20358;-76
2021/01/19 00:20:11;;;;;;;24.42;14.38;;;0.40;99.90;;;;;;6247603;23;20459;-76
2021/01/19 00:22:36;;;;;;;17.65;10.52;;;0.40;99.90;;;;;;6247527;23;20004;-76
2021/01/19 00:25:03;;;;;;;20.27;10.93;;;0.40;99.90;;;;;;6220619;23;20062;-76
2021/01/19 00:27:29;;;;;;;25.13;13.70;;;0.30;99.90;;;;;;6247350;23;20375;-76
2021/01/19 00:29:54;;;;;;;26.52;12.65;;;0.20;99.90;;;;;;6247537;23;20004;-76
2021/01/19 00:32:20;;;;;;;21.90;11.57;;;0.20;99.90;;;;;;6220771;23;20000;-76
2021/01/19 00:34:45;;;;;;;14.88;6.35;;;0.20;99.90;;;;;;6247340;22;20062;-76
2021/01/19 00:37:11;;;;;;;21.02;9.77;;;0.10;99.90;;;;;;6247464;23;20075;-76
2021/01/19 00:39:36;;;;;;;17.40;8.07;;;0.10;99.90;;;;;;6247246;23;20023;-76
2021/01/19 00:42:03;;;;;;;14.32;9.07;;;0.10;99.90;;;;;;6247363;23;20011;-76
2021/01/19 00:44:28;;;;;;;19.80;10.13;;;0.00;99.90;;;;;;6245507;22;20004;-76
2021/01/19 00:46:54;;;;;;;14.82;7.80;;;0.00;99.90;;;;;;6247484;23;20031;-76
2021/01/19 00:49:20;;;;;;;12.63;6.88;;;-0.10;99.90;;;;;;6220535;23;20003;-76
2021/01/19 00:51:45;;;;;;;13.90;8.13;;;-0.10;99.90;;;;;;6220495;23;20004;-76
2021/01/19 00:54:11;;;;;;;17.45;7.03;;;-0.10;99.90;;;;;;6247470;23;20428;-76
2021/01/19 00:56:40;;;;;;;15.15;8.68;;;-0.10;99.90;;;;;;6247463;22;20000;-77
2021/01/19 00:59:06;;;;;;;15.07;7.85;;;-0.20;99.90;;;;;;6247311;23;20007;-76
2021/01/19 01:01:33;;;;;;;15.93;7.38;;;-0.20;99.90;;;;;;6245287;23;20348;-76
2021/01/19 01:03:59;;;;;;;10.15;5.30;;;-0.10;99.90;;;;;;6220616;23;20004;-76
2021/01/19 01:06:24;;;;;;;9.65;4.43;;;-0.20;99.90;;;;;;6247405;22;20139;-76
2021/01/19 01:08:50;;;;;;;9.10;4.03;;;-0.20;99.90;;;;;;6220517;23;20031;-76
2021/01/19 01:11:16;;;;;;;6.78;3.92;;;-0.20;99.90;;;;;;6220422;23;20007;-76
2021/01/19 01:13:42;;;;;;;6.78;3.22;;;-0.20;99.90;;;;;;6247370;23;20083;-76
2021/01/19 01:16:10;;;;;;;7.28;3.83;;;-0.20;99.90;;;;;;6247311;22;20001;-76
2021/01/19 01:18:35;;;;;;;6.90;3.35;;;-0.20;99.90;;;;;;6247185;23;20031;-76
2021/01/19 01:21:01;;;;;;;10.32;3.00;;;-0.30;99.90;;;;;;6247291;23;19997;-76
2021/01/19 01:23:26;;;;;;;6.38;2.80;;;-0.20;99.90;;;;;;6246965;23;20027;-76
2021/01/19 01:25:52;;;;;;;6.88;3.28;;;-0.30;99.90;;;;;;6220210;23;20343;-76
2021/01/19 01:28:17;;;;;;;10.00;3.80;;;-0.30;99.90;;;;;;6220278;23;20008;-76
2021/01/19 01:30:43;;;;;;;7.25;4.50;;;-0.30;99.90;;;;;;6247095;23;20511;-76
2021/01/19 01:33:08;;;;;;;10.80;4.78;;;-0.20;99.90;;;;;;6246961;23;20383;-76
2021/01/19 01:35:34;;;;;;;13.57;4.53;;;-0.30;99.90;;;;;;6220046;23;20366;-76
2021/01/19 01:37:59;;;;;;;8.05;4.10;;;-0.30;99.90;;;;;;6247001;23;20392;-76
2021/01/19 01:40:27;;;;;;;5.10;3.20;;;-0.30;99.90;;;;;;6247186;23;20331;-76
2021/01/19 01:42:54;;;;;;;5.05;2.95;;;-0.30;99.90;;;;;;6246963;23;20000;-76
2021/01/19 01:45:22;;;;;;;6.68;3.45;;;-0.30;99.90;;;;;;6246641;22;20558;-76
2021/01/19 01:47:52;;;;;;;8.90;3.83;;;-0.30;99.90;;;;;;6247510;23;20347;-76
2021/01/19 01:50:18;;;;;;;10.05;4.57;;;-0.40;99.90;;;;;;6247401;23;20006;-76
2021/01/19 01:52:45;;;;;;;14.35;7.15;;;-0.40;99.90;;;;;;6245666;23;20055;-76
2021/01/19 01:55:11;;;;;;;8.23;4.28;;;-0.50;99.90;;;;;;6247218;22;20566;-76
2021/01/19 01:57:38;;;;;;;6.88;3.17;;;-0.50;99.90;;;;;;6247183;23;20005;-76
2021/01/19 02:00:06;;;;;;;4.90;3.05;;;-0.50;99.90;;;;;;6247084;23;20000;-76
2021/01/19 02:02:31;;;;;;;8.68;3.28;;;-0.60;99.90;;;;;;6245549;23;20004;-76
2021/01/19 02:04:57;;;;;;;5.78;2.90;;;-0.60;99.90;;;;;;6247441;22;20054;-76
2021/01/19 02:07:25;;;;;;;10.40;3.85;;;-0.60;99.90;;;;;;6220616;23;20015;-76
2021/01/19 02:10:08;;;;;;;7.93;3.67;;;-0.70;99.90;;;;;;6247368;23;19996;-76
2021/01/19 02:12:44;;;;;;;13.95;6.53;;;-0.60;99.90;;;;;;6246043;23;20050;-76
2021/01/19 02:15:10;;;;;;;10.05;4.60;;;-0.60;99.90;;;;;;6248042;22;20032;-76
2021/01/19 02:18:12;;;;;;;8.52;4.35;;;-0.70;99.90;;;;;;6220840;23;20008;-76
2021/01/19 02:20:46;;;;;;;16.17;6.63;;;-0.80;99.90;;;;;;6247792;23;20004;-76
2021/01/19 02:23:49;;;;;;;17.20;6.35;;;-0.80;99.90;;;;;;6247377;23;20074;-76
2021/01/19 02:27:00;;;;;;;12.77;7.55;;;-0.90;99.90;;;;;;6247767;22;20000;-76
2021/01/19 02:29:25;;;;;;;11.98;6.68;;;-0.90;99.90;;;;;;6247943;23;19996;-76
2021/01/19 02:32:17;;;;;;;19.88;8.07;;;-0.90;99.90;;;;;;6220436;23;20012;-76
2021/01/19 02:35:13;;;;;;;17.38;7.05;;;-0.90;99.90;;;;;;6247250;22;20000;-77
2021/01/19 02:38:00;;;;;;;16.02;8.73;;;-1.00;99.90;;;;;;6220455;23;20031;-76
2021/01/19 02:40:25;;;;;;;14.88;8.25;;;-1.00;99.90;;;;;;6247222;23;20006;-76
2021/01/19 02:43:11;;;;;;;14.88;8.52;;;-1.00;99.90;;;;;;6247094;23;20051;-76
2021/01/19 02:45:37;;;;;;;18.58;7.85;;;-1.00;99.90;;;;;;6246583;22;20448;-76
2021/01/19 02:48:06;;;;;;;26.30;12.40;;;-1.10;99.90;;;;;;6220057;23;20012;-76
2021/01/19 02:50:32;;;;;;;21.05;10.50;;;-1.10;99.90;;;;;;6246865;23;20066;-76
2021/01/19 02:53:03;;;;;;;19.08;10.80;;;-1.10;99.90;;;;;;6220494;23;20004;-76
2021/01/19 02:55:28;;;;;;;20.90;11.32;;;-1.10;99.90;;;;;;6246865;22;20019;-76
2021/01/19 02:58:30;;;;;;;13.18;6.35;;;-1.00;99.90;;;;;;6220237;23;20327;-76
2021/01/19 03:01:15;;;;;;;8.13;4.70;;;-1.00;99.90;;;;;;6246934;23;20030;-76
2021/01/19 03:03:42;;;;;;;9.93;5.95;;;-1.00;99.90;;;;;;6247157;23;20000;-76
2021/01/19 03:06:13;;;;;;;8.35;5.30;;;-1.00;99.90;;;;;;6246958;22;20007;-76
2021/01/19 03:08:42;;;;;;;16.30;6.28;;;-1.00;99.90;;;;;;6245672;23;20012;-76
2021/01/19 03:11:13;;;;;;;9.20;5.22;;;-1.00;99.90;;;;;;6246509;23;20091;-76
2021/01/19 03:13:39;;;;;;;9.10;4.93;;;-1.10;99.90;;;;;;6245478;23;20390;-76
2021/01/19 03:16:08;;;;;;;10.77;4.90;;;-1.20;99.90;;;;;;6247358;22;19996;-76
2021/01/19 03:18:35;;;;;;;9.75;5.20;;;-1.30;99.90;;;;;;6247130;23;20039;-77
2021/01/19 03:21:03;;;;;;;10.20;5.25;;;-1.30;99.90;;;;;;6246944;23;20079;-77
2021/01/19 03:23:29;;;;;;;12.65;6.30;;;-1.40;99.90;;;;;;6246649;23;20435;-76
2021/01/19 03:25:54;;;;;;;10.82;5.18;;;-1.40;99.90;;;;;;6246498;22;20019;-76
2021/01/19 03:28:20;;;;;;;7.30;4.50;;;-1.40;99.90;;;;;;6219818;23;20004;-76
2021/01/19 03:30:45;;;;;;;7.68;4.65;;;-1.40;99.90;;;;;;6246847;23;20079;-76
2021/01/19 03:33:11;;;;;;;6.95;4.53;;;-1.40;99.90;;;;;;6246379;23;20004;-76
2021/01/19 03:35:39;;;;;;;7.68;4.05;;;-1.40;99.90;;;;;;6246738;22;20028;-77
2021/01/19 03:38:05;;;;;;;8.30;4.50;;;-1.40;99.90;;;;;;6247590;23;20008;-76
2021/01/19 03:40:31;;;;;;;12.07;4.50;;;-1.50;99.90;;;;;;6247257;23;20007;-77
2021/01/19 03:42:57;;;;;;;8.73;4.88;;;-1.40;99.90;;;;;;6248280;23;20004;-76
2021/01/19 03:45:22;;;;;;;8.13;4.70;;;-1.40;99.90;;;;;;6248090;22;20073;-76
2021/01/19 03:47:48;;;;;;;7.63;4.55;;;-1.30;99.90;;;;;;6247421;23;20004;-77
2021/01/19 03:50:13;;;;;;;7.90;4.80;;;-1.40;99.90;;;;;;6247751;23;20058;-76
2021/01/19 03:52:39;;;;;;;8.63;4.95;;;-1.40;99.90;;;;;;6220302;23;19996;-77
2021/01/19 03:55:05;;;;;;;9.88;4.72;;;-1.40;99.90;;;;;;6219990;23;20004;-77
2021/01/19 03:57:30;;;;;;;10.05;4.22;;;-1.30;99.90;;;;;;6246704;23;20004;-77
2021/01/19 03:59:56;;;;;;;10.45;4.88;;;-1.40;99.90;;;;;;6246095;23;20028;-77
2021/01/19 04:02:21;;;;;;;9.57;4.30;;;-1.40;99.90;;;;;;6245986;23;20011;-77
2021/01/19 04:04:48;;;;;;;6.93;4.45;;;-1.40;99.90;;;;;;6246180;22;20004;-77
2021/01/19 04:07:14;;;;;;;7.95;4.68;;;-1.30;99.90;;;;;;6246224;23;20079;-77
2021/01/19 04:09:40;;;;;;;8.80;4.90;;;-1.30;99.90;;;;;;6246829;23;20023;-76
2021/01/19 04:12:05;;;;;;;6.55;4.10;;;-1.40;99.90;;;;;;6219082;23;20428;-77
2021/01/19 04:14:31;;;;;;;10.25;4.80;;;-1.40;99.90;;;;;;6245927;22;20118;-76
2021/01/19 04:16:56;;;;;;;13.55;5.03;;;-1.50;99.90;;;;;;6219167;23;20001;-76
2021/01/19 04:19:22;;;;;;;10.00;4.38;;;-1.50;99.90;;;;;;6219110;23;20058;-76
2021/01/19 04:21:47;;;;;;;9.40;5.00;;;-1.50;99.90;;;;;;6245955;23;20328;-76
2021/01/19 04:24:13;;;;;;;8.98;5.03;;;-1.60;99.90;;;;;;6245657;23;20039;-77
2021/01/19 04:26:38;;;;;;;11.25;6.28;;;-1.60;99.90;;;;;;6218929;23;20000;-77
2021/01/19 04:29:04;;;;;;;11.68;4.90;;;-1.60;99.90;;;;;;6245599;23;20030;-76
2021/01/19 04:31:30;;;;;;;14.07;8.40;;;-1.50;99.90;;;;;;6245618;23;20001;-76
2021/01/19 04:33:55;;;;;;;13.23;6.93;;;-1.50;99.90;;;;;;6218651;23;20000;-76
2021/01/19 04:36:21;;;;;;;11.93;6.13;;;-1.50;99.90;;;;;;6246400;22;20018;-76
2021/01/19 04:38:46;;;;;;;11.73;6.35;;;-1.50;99.90;;;;;;6220430;23;20007;-76
2021/01/19 04:41:13;;;;;;;12.82;6.65;;;-1.50;99.90;;;;;;6247552;23;20008;-76
2021/01/19 04:43:41;;;;;;;11.52;5.47;;;-1.50;99.90;;;;;;6247334;23;20007;-77
2021/01/19 04:46:09;;;;;;;10.63;5.28;;;-1.60;99.90;;;;;;6246969;22;20016;-77
2021/01/19 04:48:36;;;;;;;12.43;6.05;;;-1.60;99.90;;;;;;6247207;23;20004;-76
2021/01/19 04:51:04;;;;;;;11.82;6.40;;;-1.60;99.90;;;;;;6245576;23;20000;-76
2021/01/19 04:53:35;;;;;;;9.07;5.05;;;-1.60;99.90;;;;;;6247053;23;20003;-76
2021/01/19 04:56:03;;;;;;;10.15;5.55;;;-1.60;99.90;;;;;;6247732;22;20000;-77
2021/01/19 04:58:31;;;;;;;9.27;5.60;;;-1.70;99.90;;;;;;6247000;23;20027;-76
2021/01/19 05:01:08;;;;;;;9.48;5.30;;;-1.70;99.90;;;;;;6247315;23;20004;-76
2021/01/19 05:03:56;;;;;;;10.65;5.95;;;-1.70;99.90;;;;;;6247464;23;20035;-76
2021/01/19 05:07:12;;;;;;;10.77;5.47;;;-1.70;99.90;;;;;;6245283;22;20455;-76
2021/01/19 05:09:50;;;;;;;12.20;6.70;;;-1.80;99.90;;;;;;6246856;23;20069;-76
2021/01/19 05:12:23;;;;;;;8.30;5.80;;;-1.80;99.90;;;;;;6246913;23;20004;-76
2021/01/19 05:14:51;;;;;;;10.02;5.88;;;-1.80;99.90;;;;;;6219829;22;20002;-76
2021/01/19 05:17:22;;;;;;;12.73;6.93;;;-1.70;99.90;;;;;;6246785;23;20004;-76
2021/01/19 05:19:51;;;;;;;10.80;6.95;;;-1.70;99.90;;;;;;6246853;23;20003;-75
2021/01/19 05:22:19;;;;;;;10.60;6.50;;;-1.70;99.90;;;;;;6247004;23;20026;-76
2021/01/19 05:24:47;;;;;;;13.30;7.32;;;-1.70;99.90;;;;;;6247016;22;20004;-76
2021/01/19 05:27:13;;;;;;;13.30;6.88;;;-1.70;99.90;;;;;;6246690;23;20019;-76
2021/01/19 05:29:39;;;;;;;11.48;6.65;;;-1.80;99.90;;;;;;6246714;23;19996;-76
2021/01/19 05:32:05;;;;;;;13.45;7.25;;;-1.80;99.90;;;;;;6246772;23;20046;-76
2021/01/19 05:34:35;;;;;;;12.80;7.40;;;-1.80;99.90;;;;;;6220496;22;20327;-76
2021/01/19 05:37:01;;;;;;;12.85;7.15;;;-1.80;99.90;;;;;;6220892;23;20382;-77
2021/01/19 05:39:26;;;;;;;12.00;7.00;;;-1.80;99.90;;;;;;6246856;23;20090;-76
2021/01/19 05:41:53;;;;;;;12.43;7.35;;;-1.80;99.90;;;;;;6219790;23;20020;-76
2021/01/19 05:44:20;;;;;;;11.10;6.65;;;-1.80;99.90;;;;;;6245086;23;20004;-76
2021/01/19 05:46:51;;;;;;;12.77;6.75;;;-1.80;99.90;;;;;;6267307;22;20042;-75
2021/01/19 05:49:19;;;;;;;12.43;6.95;;;-1.90;99.90;;;;;;6277598;22;20002;-75
2021/01/19 05:51:46;;;;;;;15.98;8.13;;;-1.90;99.90;;;;;;6250145;22;20003;-76
2021/01/19 05:54:21;;;;;;;18.55;7.80;;;-1.90;99.90;;;;;;6277465;22;19999;-75
2021/01/19 05:56:49;;;;;;;15.20;8.25;;;-1.90;99.90;;;;;;6253405;22;20011;-75
2021/01/19 05:59:33;;;;;;;15.02;8.63;;;-1.80;99.90;;;;;;6246572;23;20004;-76
2021/01/19 06:02:01;;;;;;;16.77;8.63;;;-1.80;99.90;;;;;;6219855;23;20008;-75
2021/01/19 06:04:32;;;;;;;14.68;8.25;;;-1.90;99.90;;;;;;6244859;23;20491;-76
2021/01/19 06:06:58;;;;;;;12.52;7.15;;;-1.90;99.90;;;;;;6222571;23;20012;-75
2021/01/19 06:09:25;;;;;;;14.15;7.90;;;-1.90;99.90;;;;;;6246605;23;20031;-75
2021/01/19 06:11:55;;;;;;;9.95;6.45;;;-1.90;99.90;;;;;;6246073;23;20000;-76
2021/01/19 06:14:26;;;;;;;11.38;6.78;;;-2.00;99.90;;;;;;6245371;23;20007;-75
2021/01/19 06:17:04;;;;;;;11.88;6.70;;;-2.00;99.90;;;;;;6244836;22;20454;-76
2021/01/19 06:19:30;;;;;;;15.20;7.43;;;-2.00;99.90;;;;;;6245618;23;20086;-76
2021/01/19 06:21:56;;;;;;;13.90;7.45;;;-2.10;99.90;;;;;;6244822;23;20014;-75
2021/01/19 06:24:35;;;;;;;12.13;7.90;;;-2.10;99.90;;;;;;6246247;23;20000;-76
2021/01/19 06:27:02;;;;;;;13.95;7.25;;;-2.10;99.90;;;;;;6244580;22;20000;-76
2021/01/19 06:29:28;;;;;;;13.65;7.63;;;-2.20;99.90;;;;;;6246189;23;20000;-76
2021/01/19 06:31:58;;;;;;;13.38;7.70;;;-2.10;99.90;;;;;;6219443;23;20485;-76
2021/01/19 06:34:25;;;;;;;13.50;7.65;;;-2.20;99.90;;;;;;6244555;23;20015;-76
2021/01/19 06:36:51;;;;;;;12.93;7.68;;;-2.20;99.90;;;;;;6244540;23;20014;-76
2021/01/19 06:39:28;;;;;;;14.75;7.03;;;-2.10;99.90;;;;;;6246177;23;20416;-75
2021/01/19 06:42:07;;;;;;;16.05;7.80;;;-2.10;99.90;;;;;;6246423;23;20066;-76
2021/01/19 06:44:54;;;;;;;13.68;7.82;;;-2.00;99.90;;;;;;6244758;23;20075;-76
2021/01/19 06:47:20;;;;;;;15.35;8.48;;;-2.00;99.90;;;;;;6245909;23;20347;-76
2021/01/19 06:49:46;;;;;;;13.32;7.70;;;-2.00;99.90;;;;;;6219291;23;20000;-76
2021/01/19 06:52:13;;;;;;;13.07;7.45;;;-2.10;99.90;;;;;;6246078;23;20007;-75
2021/01/19 06:54:54;;;;;;;16.88;8.45;;;-2.10;99.90;;;;;;6219267;23;20039;-76
2021/01/19 06:57:52;;;;;;;12.02;7.30;;;-2.10;99.90;;;;;;6219191;23;20008;-76
2021/01/19 07:00:21;;;;;;;15.20;8.05;;;-2.10;99.90;;;;;;6244179;23;20011;-76
2021/01/19 07:02:49;;;;;;;16.73;7.90;;;-2.10;99.90;;;;;;6246139;23;20016;-76
2021/01/19 07:05:24;;;;;;;14.13;8.13;;;-2.10;99.90;;;;;;6244371;22;20042;-76
2021/01/19 07:08:44;;;;;;;14.18;7.95;;;-2.10;99.90;;;;;;6218898;23;20008;-76
2021/01/19 07:11:37;;;;;;;15.60;8.45;;;-2.10;99.90;;;;;;6244924;23;19997;-76
2021/01/19 07:14:14;;;;;;;20.23;8.73;;;-2.10;99.90;;;;;;6246211;23;20000;-76
2021/01/19 07:16:57;;;;;;;14.50;8.60;;;-2.10;99.90;;;;;;6245730;22;20001;-75
2021/01/19 07:19:35;;;;;;;17.02;9.60;;;-2.00;99.90;;;;;;6244271;23;20004;-76
2021/01/19 07:22:05;;;;;;;16.48;9.57;;;-1.90;99.90;;;;;;6244264;23;20004;-76
2021/01/19 07:24:41;;;;;;;15.52;8.68;;;-2.00;99.90;;;;;;6244150;23;20001;-76
2021/01/19 07:27:09;;;;;;;16.33;9.15;;;-2.00;99.90;;;;;;6218889;23;20496;-76
2021/01/19 07:29:36;;;;;;;15.35;9.40;;;-1.90;99.90;;;;;;6244289;23;20428;-76
2021/01/19 07:32:11;;;;;;;16.73;10.07;;;-1.90;99.90;;;;;;6244334;23;20443;-76
2021/01/19 07:34:39;;;;;;;15.23;9.23;;;-1.90;99.90;;;;;;6246246;23;20272;-76
2021/01/19 07:37:05;;;;;;;15.40;9.07;;;-1.80;99.90;;;;;;6245696;22;20008;-76
2021/01/19 07:39:33;;;;;;;16.13;9.60;;;-1.80;99.90;;;;;;6245708;23;20072;-76
2021/01/19 07:42:17;;;;;;;17.25;11.02;;;-1.80;99.90;;;;;;6244128;23;20343;-76
2021/01/19 07:44:54;;;;;;;16.17;9.88;;;-1.80;99.90;;;;;;6245628;23;20000;-76
2021/01/19 07:47:19;;;;;;;17.95;10.13;;;-1.70;99.90;;;;;;6243962;23;20008;-76
2021/01/19 07:49:45;;;;;;;18.23;9.98;;;-1.60;99.90;;;;;;6245847;23;20000;-76
2021/01/19 07:52:15;;;;;;;19.10;9.48;;;-1.50;99.90;;;;;;6245794;23;20008;-77
2021/01/19 07:54:42;;;;;;;13.30;9.27;;;-1.40;99.90;;;;;;6245627;23;20095;-76
2021/01/19 07:57:17;;;;;;;14.48;8.85;;;-1.40;99.90;;;;;;6244093;22;20008;-75
2021/01/19 07:59:43;;;;;;;15.05;8.70;;;-1.20;99.90;;;;;;6245959;23;20081;-75
2021/01/19 08:02:21;;;;;;;14.70;9.15;;;-1.10;99.90;;;;;;6245669;23;20005;-76
2021/01/19 08:04:46;;;;;;;15.90;9.18;;;-0.90;99.90;;;;;;6246084;23;20015;-76
2021/01/19 08:07:19;;;;;;;14.25;8.02;;;-0.70;99.90;;;;;;6245599;22;20036;-76
2021/01/19 08:09:44;;;;;;;15.55;8.98;;;-0.50;99.90;;;;;;6245859;23;20010;-76
2021/01/19 08:12:14;;;;;;;12.63;8.18;;;-0.30;99.90;;;;;;6220983;23;20028;-76
2021/01/19 08:14:45;;;;;;;13.00;8.65;;;-0.10;99.90;;;;;;6246918;23;20325;-76
2021/01/19 08:17:12;;;;;;;14.77;9.40;;;0.10;99.90;;;;;;6247649;22;20004;-76
2021/01/19 08:19:39;;;;;;;14.02;9.23;;;0.20;99.90;;;;;;6249499;23;20012;-77
2021/01/19 08:22:05;;;;;;;14.35;8.88;;;0.40;99.90;;;;;;6248315;23;20011;-77
2021/01/19 08:24:31;;;;;;;15.52;9.50;;;0.50;99.90;;;;;;6246079;23;20000;-77
2021/01/19 08:26:57;;;;;;;15.15;9.63;;;0.50;99.90;;;;;;6247148;22;20074;-77
2021/01/19 08:29:23;;;;;;;13.98;8.75;;;0.70;99.90;;;;;;6220534;23;20497;-77
2021/01/19 08:31:58;;;;;;;15.23;10.07;;;0.70;99.90;;;;;;6245951;23;20000;-77
2021/01/19 08:34:26;;;;;;;17.10;10.65;;;0.80;99.90;;;;;;6247778;23;20008;-77
2021/01/19 08:36:53;;;;;;;14.90;9.20;;;0.90;99.90;;;;;;6247757;22;20428;-77
2021/01/19 08:39:19;;;;;;;17.52;10.10;;;1.10;99.90;;;;;;6246301;23;20000;-77
2021/01/19 08:41:46;;;;;;;16.65;10.13;;;1.30;99.90;;;;;;6221118;23;20074;-77
2021/01/19 08:44:13;;;;;;;13.13;8.57;;;1.40;99.90;;;;;;6246516;23;20009;-77
2021/01/19 08:46:39;;;;;;;22.40;12.35;;;1.50;99.90;;;;;;6221624;23;20016;-77
2021/01/19 08:49:09;;;;;;;20.00;11.02;;;1.70;99.90;;;;;;6220791;23;20341;-77
2021/01/19 08:51:36;;;;;;;23.50;12.98;;;1.90;99.90;;;;;;6220953;23;20004;-77
2021/01/19 08:54:10;;;;;;;14.20;8.85;;;2.20;99.90;;;;;;6247577;23;20382;-77
2021/01/19 08:56:40;;;;;;;11.35;7.28;;;3.50;99.90;;;;;;6247411;22;20035;-77
2021/01/19 08:59:06;;;;;;;12.75;8.50;;;5.20;99.90;;;;;;6247162;23;20053;-77
2021/01/19 09:01:32;;;;;;;13.85;7.80;;;7.10;99.90;;;;;;6224470;23;20012;-78
2021/01/19 09:04:00;;;;;;;10.63;8.25;;;8.70;90.20;;;;;;6247127;23;20004;-77
2021/01/19 09:06:26;;;;;;;9.82;7.35;;;9.90;75.10;;;;;;6247225;22;20127;-77
2021/01/19 09:08:56;;;;;;;8.40;6.35;;;11.40;71.00;;;;;;6220062;23;20036;-77
2021/01/19 09:11:31;;;;;;;8.57;6.60;;;13.30;57.70;;;;;;6220045;23;20440;-77
2021/01/19 09:14:08;;;;;;;8.38;6.38;;;14.70;53.40;;;;;;6220026;23;20521;-77
2021/01/19 09:16:36;;;;;;;7.40;6.20;;;15.90;48.90;;;;;;6219975;23;20012;-77
2021/01/19 09:19:04;;;;;;;7.68;5.88;;;15.40;47.20;;;;;;6247008;23;20008;-77
2021/01/19 09:21:30;;;;;;;7.95;5.88;;;15.20;48.10;;;;;;6246444;23;20435;-77
2021/01/19 09:23:56;;;;;;;7.55;6.22;;;15.60;47.00;;;;;;6247324;23;20007;-78
2021/01/19 09:26:22;;;;;;;7.13;5.75;;;15.40;45.40;;;;;;6219871;23;20061;-77
2021/01/19 09:28:49;;;;;;;7.72;5.95;;;15.00;45.20;;;;;;6247014;23;20416;-77
2021/01/19 09:31:23;;;;;;;8.07;6.88;;;14.50;47.80;;;;;;6220055;23;20015;-77
2021/01/19 09:33:53;;;;;;;7.05;6.10;;;14.50;47.30;;;;;;6219996;23;20012;-77
2021/01/19 09:36:20;;;;;;;6.93;5.63;;;14.40;48.50;;;;;;6246676;22;20039;-77
2021/01/19 09:38:48;;;;;;;6.32;5.13;;;14.10;47.00;;;;;;6219811;23;20004;-77
2021/01/19 09:41:17;;;;;;;7.28;5.43;;;13.00;47.80;;;;;;6247385;23;20087;-77
2021/01/19 09:43:50;;;;;;;7.13;5.22;;;12.60;49.40;;;;;;6219624;23;20000;-77
2021/01/19 09:46:20;;;;;;;8.45;6.30;;;12.90;49.90;;;;;;6244844;22;20004;-77
2021/01/19 09:48:49;;;;;;;7.03;5.68;;;13.70;47.80;;;;;;6246607;23;20015;-77
2021/01/19 09:51:14;;;;;;;7.78;6.63;;;14.80;46.20;;;;;;6246510;23;20081;-77
2021/01/19 09:53:41;;;;;;;9.77;6.90;;;16.10;45.50;;;;;;6246554;23;19996;-77
2021/01/19 09:56:16;;;;;;;7.05;5.97;;;18.40;41.50;;;;;;6246827;22;20001;-77
2021/01/19 09:58:42;;;;;;;7.80;6.10;;;21.20;37.00;;;;;;6246540;23;20440;-77
2021/01/19 10:01:08;;;;;;;7.68;6.57;;;22.90;33.00;;;;;;6248226;23;20023;-78
2021/01/19 10:03:35;;;;;;;6.88;5.93;;;24.80;30.10;;;;;;6220263;23;20000;-77
2021/01/19 10:06:05;;;;;;;6.95;5.10;;;27.10;27.40;;;;;;6247678;22;20004;-77
2021/01/19 10:08:32;;;;;;;6.50;5.40;;;28.80;25.90;;;;;;6247316;23;20443;-77
2021/01/19 10:10:59;;;;;;;5.40;4.88;;;30.90;23.40;;;;;;6244732;23;20509;-76
2021/01/19 10:13:29;;;;;;;5.68;5.13;;;32.70;22.00;;;;;;6244722;23;20367;-77
2021/01/19 10:16:01;;;;;;;5.63;5.05;;;33.80;20.80;;;;;;6246268;22;20000;-77
2021/01/19 10:18:27;;;;;;;4.45;4.00;;;35.00;20.10;;;;;;6219390;23;20009;-77
2021/01/19 10:20:52;;;;;;;5.32;4.60;;;35.40;19.40;;;;;;6246594;23;20064;-75
2021/01/19 10:23:29;;;;;;;4.45;3.55;;;35.50;18.60;;;;;;6219415;23;20474;-75
2021/01/19 10:26:08;;;;;;;4.13;3.72;;;35.30;17.90;;;;;;6246109;22;20424;-77
2021/01/19 10:28:38;;;;;;;4.45;4.05;;;35.50;17.60;;;;;;6247298;23;20004;-77
2021/01/19 10:31:15;;;;;;;3.38;3.08;;;35.70;17.70;;;;;;6220936;23;20087;-77
2021/01/19 10:33:56;;;;;;;6.53;4.00;;;35.50;17.60;;;;;;6246152;23;20004;-77
2021/01/19 10:36:22;;;;;;;3.95;3.65;;;34.60;17.30;;;;;;6247153;22;20031;-77
2021/01/19 10:38:48;;;;;;;5.65;4.03;;;34.30;18.30;;;;;;6220129;23;20019;-77
2021/01/19 10:41:27;;;;;;;4.60;3.22;;;35.10;17.90;;;;;;6219395;23;20419;-77
2021/01/19 10:43:54;;;;;;;4.32;3.10;;;34.90;17.40;;;;;;6244752;23;20031;-77
2021/01/19 10:46:27;;;;;;;4.53;3.42;;;35.00;17.80;;;;;;6244306;22;20087;-77
2021/01/19 10:49:04;;;;;;;4.32;3.85;;;34.40;17.60;;;;;;6246220;23;20054;-77
2021/01/19 10:51:30;;;;;;;3.88;3.00;;;33.60;17.60;;;;;;6246363;23;20478;-77
2021/01/19 10:54:06;;;;;;;3.75;3.33;;;33.10;18.20;;;;;;6244500;23;20351;-77
2021/01/19 10:56:33;;;;;;;5.18;4.10;;;32.80;18.50;;;;;;6245757;22;20024;-77
2021/01/19 10:58:58;;;;;;;5.40;3.65;;;31.90;18.60;;;;;;6244393;23;20027;-77
2021/01/19 11:01:27;;;;;;;4.43;3.95;;;30.90;19.30;;;;;;6219136;23;20427;-77
2021/01/19 11:03:54;;;;;;;6.57;4.65;;;30.10;19.10;;;;;;6246248;23;20072;-77
2021/01/19 11:06:20;;;;;;;4.93;3.50;;;29.50;20.30;;;;;;6244542;22;20000;-77
2021/01/19 11:08:46;;;;;;;5.65;3.45;;;29.80;20.70;;;;;;6244211;23;20079;-76
2021/01/19 11:11:13;;;;;;;4.63;3.67;;;30.50;20.20;;;;;;6246143;23;20027;-76
2021/01/19 11:13:39;;;;;;;3.92;3.53;;;31.40;19.20;;;;;;6244288;23;20015;-77
2021/01/19 11:16:05;;;;;;;3.53;3.00;;;31.10;19.20;;;;;;6245768;22;20015;-76
2021/01/19 11:18:31;;;;;;;3.72;2.85;;;31.00;19.40;;;;;;6244345;23;20083;-77
2021/01/19 11:20:57;;;;;;;4.45;3.28;;;31.50;19.40;;;;;;6246202;23;19997;-77
2021/01/19 11:23:22;;;;;;;4.60;3.60;;;31.50;19.00;;;;;;6244499;23;20001;-77
2021/01/19 11:25:48;;;;;;;3.97;3.10;;;30.10;19.70;;;;;;6246088;22;20004;-77
2021/01/19 11:28:14;;;;;;;4.10;3.63;;;28.90;20.60;;;;;;6219588;23;20008;-77
2021/01/19 11:30:39;;;;;;;3.20;2.80;;;26.80;21.70;;;;;;6246173;23;20000;-77
2021/01/19 11:33:05;;;;;;;3.67;3.03;;;24.90;22.70;;;;;;6244693;23;20004;-77
2021/01/19 11:35:35;;;;;;;5.32;3.25;;;24.50;23.60;;;;;;6220847;23;20285;-77
2021/01/19 11:38:02;;;;;;;3.85;3.17;;;24.40;23.20;;;;;;6219555;23;20011;-76
2021/01/19 11:40:27;;;;;;;5.90;3.80;;;22.60;25.40;;;;;;6245602;23;20474;-77
2021/01/19 11:42:53;;;;;;;5.18;3.70;;;21.80;26.60;;;;;;6219323;23;20000;-77
2021/01/19 11:45:18;;;;;;;5.93;4.70;;;21.50;27.10;;;;;;6248585;22;20301;-77
2021/01/19 11:47:44;;;;;;;6.32;5.10;;;22.00;27.20;;;;;;6223711;23;20008;-77
2021/01/19 11:50:10;;;;;;;5.50;4.78;;;22.20;27.10;;;;;;6224071;23;20039;-77
2021/01/19 11:52:35;;;;;;;6.35;4.45;;;22.60;26.40;;;;;;6249441;23;20004;-78
2021/01/19 11:55:01;;;;;;;5.30;4.13;;;21.90;26.60;;;;;;6250741;22;20467;-77
2021/01/19 11:57:26;;;;;;;5.88;4.97;;;21.50;27.80;;;;;;6250426;23;20073;-77
2021/01/19 11:59:52;;;;;;;4.93;4.25;;;21.60;27.50;;;;;;6250849;23;20003;-77
2021/01/19 12:02:17;;;;;;;6.60;4.85;;;21.50;27.70;;;;;;6251856;23;20003;-77
2021/01/19 12:04:44;;;;;;;5.38;4.07;;;21.30;27.80;;;;;;6251579;23;20067;-77
2021/01/19 12:07:09;;;;;;;6.07;5.07;;;20.00;29.30;;;;;;6223844;23;20458;-77
2021/01/19 12:09:35;;;;;;;7.15;5.07;;;18.60;30.70;;;;;;6251158;23;20008;-77
2021/01/19 12:12:01;;;;;;;7.63;5.57;;;17.70;32.80;;;;;;6223160;23;20011;-77
2021/01/19 12:14:26;;;;;;;5.68;4.65;;;16.90;33.60;;;;;;6251203;23;20339;-77
2021/01/19 12:16:56;;;;;;;6.20;4.75;;;16.40;35.00;;;;;;6223467;23;20058;-77
2021/01/19 12:19:22;;;;;;;6.30;4.53;;;16.20;35.70;;;;;;6250636;23;20386;-77
2021/01/19 12:21:56;;;;;;;5.80;4.20;;;16.00;35.90;;;;;;6250025;23;19996;-77
2021/01/19 12:24:22;;;;;;;6.10;4.70;;;15.90;36.30;;;;;;6249965;23;20063;-77
2021/01/19 12:26:50;;;;;;;7.32;5.03;;;15.60;36.70;;;;;;6250881;22;20000;-77
2021/01/19 12:29:17;;;;;;;5.32;4.63;;;14.70;38.80;;;;;;6224414;23;20103;-77
2021/01/19 12:31:42;;;;;;;6.72;5.40;;;14.00;40.30;;;;;;6250877;23;20000;-77
2021/01/19 12:34:08;;;;;;;7.15;5.07;;;13.60;41.00;;;;;;6251039;23;20020;-76
2021/01/19 12:36:33;;;;;;;6.80;4.93;;;13.60;42.00;;;;;;6223619;23;20000;-77
2021/01/19 12:39:01;;;;;;;7.97;6.22;;;14.40;40.60;;;;;;6224103;23;20004;-77
2021/01/19 12:41:27;;;;;;;8.15;6.03;;;15.60;38.40;;;;;;6224455;23;20000;-77
2021/01/19 12:43:52;;;;;;;8.30;5.70;;;15.40;37.90;;;;;;6222988;23;20000;-77
2021/01/19 12:46:18;;;;;;;8.55;6.05;;;14.60;40.10;;;;;;6222460;23;20087;-76
2021/01/19 12:48:44;;;;;;;11.00;6.68;;;14.00;41.80;;;;;;6250954;23;20000;-76
2021/01/19 12:51:17;;;;;;;7.85;6.72;;;13.70;42.40;;;;;;6250427;23;20000;-77
2021/01/19 12:53:44;;;;;;;8.55;6.28;;;13.20;43.10;;;;;;6249194;23;20004;-77